sensor_id;sensor_type;location;lat;lon;timestamp;temperature;humidity
71142;DHT22;58808;59.366;17.970;2023-02-28T00:01:31;2.70;99.90
71142;DHT22;58808;59.366;17.970;2023-02-28T00:04:01;2.70;99.90
71142;DHT22;58808;59.366;17.970;2023-02-28T00:06:28;2.70;99.90
71142;DHT22;58808;59.366;17.970;2023-02-28T00:08:56;2.70;99.90
71142;DHT22;58808;59.366;17.970;2023-02-28T00:11:24;2.70;99.90
71142;DHT22;58808;59.366;17.970;2023-02-28T00:13:50;2.70;99.90
71142;DHT22;58808;59.366;17.970;2023-02-28T00:16:21;2.70;99.90
71142;DHT22;58808;59.366;17.970;2023-02-28T00:18:47;2.70;99.90
71142;DHT22;58808;59.366;17.970;2023-02-28T00:21:14;2.70;99.90
71142;DHT22;58808;59.366;17.970;2023-02-28T00:23:40;2.70;99.90
71142;DHT22;58808;59.366;17.970;2023-02-28T00:26:06;2.70;99.90
71142;DHT22;58808;59.366;17.970;2023-02-28T00:28:32;2.70;99.90
71142;DHT22;58808;59.366;17.970;2023-02-28T00:30:57;2.70;99.90
71142;DHT22;58808;59.366;17.970;2023-02-28T00:33:25;2.80;99.90
71142;DHT22;58808;59.366;17.970;2023-02-28T00:35:51;2.80;99.90
71142;DHT22;58808;59.366;17.970;2023-02-28T00:38:17;2.80;99.90
71142;DHT22;58808;59.366;17.970;2023-02-28T00:40:43;2.70;99.90
71142;DHT22;58808;59.366;17.970;2023-02-28T00:43:09;2.70;99.90
71142;DHT22;58808;59.366;17.970;2023-02-28T00:45:34;2.70;99.90
71142;DHT22;58808;59.366;17.970;2023-02-28T00:48:00;2.70;99.90
71142;DHT22;58808;59.366;17.970;2023-02-28T00:50:26;2.70;99.90
71142;DHT22;58808;59.366;17.970;2023-02-28T00:52:52;2.70;99.90
71142;DHT22;58808;59.366;17.970;2023-02-28T00:55:18;2.70;99.90
71142;DHT22;58808;59.366;17.970;2023-02-28T00:57:44;2.70;99.90
71142;DHT22;58808;59.366;17.970;2023-02-28T01:00:10;2.60;99.90
71142;DHT22;58808;59.366;17.970;2023-02-28T01:02:36;2.70;99.90
71142;DHT22;58808;59.366;17.970;2023-02-28T01:05:02;2.70;99.90
71142;DHT22;58808;59.366;17.970;2023-02-28T01:07:28;2.60;99.90
71142;DHT22;58808;59.366;17.970;2023-02-28T01:09:54;2.60;99.90
71142;DHT22;58808;59.366;17.970;2023-02-28T01:12:20;2.60;99.90
71142;DHT22;58808;59.366;17.970;2023-02-28T01:14:46;2.60;99.90
71142;DHT22;58808;59.366;17.970;2023-02-28T01:17:11;2.60;99.90
71142;DHT22;58808;59.366;17.970;2023-02-28T01:19:37;2.60;99.90
71142;DHT22;58808;59.366;17.970;2023-02-28T01:22:04;2.60;99.90
71142;DHT22;58808;59.366;17.970;2023-02-28T01:24:37;2.60;99.90
71142;DHT22;58808;59.366;17.970;2023-02-28T01:27:03;2.50;99.90
71142;DHT22;58808;59.366;17.970;2023-02-28T01:29:28;2.50;99.90
71142;DHT22;58808;59.366;17.970;2023-02-28T01:31:54;2.50;99.90
71142;DHT22;58808;59.366;17.970;2023-02-28T01:34:20;2.50;99.90
71142;DHT22;58808;59.366;17.970;2023-02-28T01:36:46;2.50;99.90
71142;DHT22;58808;59.366;17.970;2023-02-28T01:39:12;2.50;99.90
71142;DHT22;58808;59.366;17.970;2023-02-28T01:41:38;2.50;99.90
71142;DHT22;58808;59.366;17.970;2023-02-28T01:44:07;2.50;99.90
71142;DHT22;58808;59.366;17.970;2023-02-28T01:46:51;2.60;99.90
71142;DHT22;58808;59.366;17.970;2023-02-28T01:49:17;2.60;99.90
71142;DHT22;58808;59.366;17.970;2023-02-28T01:51:50;2.60;99.90
71142;DHT22;58808;59.366;17.970;2023-02-28T01:54:22;2.50;99.90
71142;DHT22;58808;59.366;17.970;2023-02-28T01:56:59;2.60;99.90
71142;DHT22;58808;59.366;17.970;2023-02-28T01:59:48;2.60;99.90
71142;DHT22;58808;59.366;17.970;2023-02-28T02:02:17;2.60;99.90
71142;DHT22;58808;59.366;17.970;2023-02-28T02:05:20;2.60;99.90
71142;DHT22;58808;59.366;17.970;2023-02-28T02:07:50;2.50;99.90
71142;DHT22;58808;59.366;17.970;2023-02-28T02:10:19;2.50;99.90
71142;DHT22;58808;59.366;17.970;2023-02-28T02:18:46;2.50;99.90
71142;DHT22;58808;59.366;17.970;2023-02-28T02:35:31;2.10;99.90
71142;DHT22;58808;59.366;17.970;2023-02-28T02:38:08;2.00;99.90
71142;DHT22;58808;59.366;17.970;2023-02-28T02:40:47;2.10;99.90
71142;DHT22;58808;59.366;17.970;2023-02-28T02:43:36;2.00;99.90
71142;DHT22;58808;59.366;17.970;2023-02-28T02:46:08;2.00;99.90
71142;DHT22;58808;59.366;17.970;2023-02-28T02:48:38;2.00;99.90
71142;DHT22;58808;59.366;17.970;2023-02-28T02:51:10;1.90;99.90
71142;DHT22;58808;59.366;17.970;2023-02-28T02:54:30;1.80;99.90
71142;DHT22;58808;59.366;17.970;2023-02-28T02:56:50;1.80;99.90
71142;DHT22;58808;59.366;17.970;2023-02-28T02:59:20;1.80;99.90
71142;DHT22;58808;59.366;17.970;2023-02-28T03:01:53;1.80;99.90
71142;DHT22;58808;59.366;17.970;2023-02-28T03:04:22;1.70;99.90
71142;DHT22;58808;59.366;17.970;2023-02-28T03:06:51;1.70;99.90
71142;DHT22;58808;59.366;17.970;2023-02-28T03:09:24;1.70;99.90
71142;DHT22;58808;59.366;17.970;2023-02-28T03:11:52;1.70;99.90
71142;DHT22;58808;59.366;17.970;2023-02-28T03:22:11;1.60;99.90
71142;DHT22;58808;59.366;17.970;2023-02-28T03:27:26;1.60;99.90
71142;DHT22;58808;59.366;17.970;2023-02-28T03:30:06;1.60;99.90
71142;DHT22;58808;59.366;17.970;2023-02-28T03:35:24;1.60;99.90
71142;DHT22;58808;59.366;17.970;2023-02-28T03:37:54;1.70;99.90
71142;DHT22;58808;59.366;17.970;2023-02-28T03:40:25;1.60;99.90
71142;DHT22;58808;59.366;17.970;2023-02-28T03:42:57;1.60;99.90
71142;DHT22;58808;59.366;17.970;2023-02-28T03:45:28;1.70;99.90
71142;DHT22;58808;59.366;17.970;2023-02-28T03:50:38;1.70;99.90
71142;DHT22;58808;59.366;17.970;2023-02-28T03:53:21;1.70;99.90
71142;DHT22;58808;59.366;17.970;2023-02-28T03:55:54;1.70;99.90
71142;DHT22;58808;59.366;17.970;2023-02-28T04:01:21;1.70;99.90
71142;DHT22;58808;59.366;17.970;2023-02-28T04:03:45;1.70;99.90
71142;DHT22;58808;59.366;17.970;2023-02-28T04:06:20;1.70;99.90
71142;DHT22;58808;59.366;17.970;2023-02-28T04:08:46;1.70;99.90
71142;DHT22;58808;59.366;17.970;2023-02-28T04:11:39;1.60;99.90
71142;DHT22;58808;59.366;17.970;2023-02-28T04:14:07;1.70;99.90
71142;DHT22;58808;59.366;17.970;2023-02-28T04:16:34;1.70;99.90
71142;DHT22;58808;59.366;17.970;2023-02-28T04:19:01;1.70;99.90
71142;DHT22;58808;59.366;17.970;2023-02-28T04:21:29;1.70;99.90
71142;DHT22;58808;59.366;17.970;2023-02-28T04:23:55;1.70;99.90
71142;DHT22;58808;59.366;17.970;2023-02-28T04:26:21;1.70;99.90
71142;DHT22;58808;59.366;17.970;2023-02-28T04:28:47;1.70;99.90
71142;DHT22;58808;59.366;17.970;2023-02-28T04:31:12;1.70;99.90
71142;DHT22;58808;59.366;17.970;2023-02-28T04:33:38;1.60;99.90
71142;DHT22;58808;59.366;17.970;2023-02-28T04:36:06;1.60;99.90
71142;DHT22;58808;59.366;17.970;2023-02-28T04:38:34;1.50;99.90
71142;DHT22;58808;59.366;17.970;2023-02-28T04:41:01;1.50;99.90
71142;DHT22;58808;59.366;17.970;2023-02-28T04:43:27;1.40;99.90
71142;DHT22;58808;59.366;17.970;2023-02-28T04:45:54;1.40;99.90
71142;DHT22;58808;59.366;17.970;2023-02-28T04:48:24;1.40;99.90
71142;DHT22;58808;59.366;17.970;2023-02-28T04:50:51;1.30;99.90
71142;DHT22;58808;59.366;17.970;2023-02-28T04:53:17;1.30;99.90
71142;DHT22;58808;59.366;17.970;2023-02-28T04:55:44;1.30;99.90
71142;DHT22;58808;59.366;17.970;2023-02-28T04:58:10;1.40;99.90
71142;DHT22;58808;59.366;17.970;2023-02-28T05:00:36;1.40;99.90
71142;DHT22;58808;59.366;17.970;2023-02-28T05:03:02;1.40;99.90
71142;DHT22;58808;59.366;17.970;2023-02-28T05:05:27;1.40;99.90
71142;DHT22;58808;59.366;17.970;2023-02-28T05:07:53;1.40;99.90
71142;DHT22;58808;59.366;17.970;2023-02-28T05:10:24;1.40;99.90
71142;DHT22;58808;59.366;17.970;2023-02-28T05:12:50;1.40;99.90
71142;DHT22;58808;59.366;17.970;2023-02-28T05:15:16;1.40;99.90
71142;DHT22;58808;59.366;17.970;2023-02-28T05:17:43;1.40;99.90
71142;DHT22;58808;59.366;17.970;2023-02-28T05:20:09;1.40;99.90
71142;DHT22;58808;59.366;17.970;2023-02-28T05:22:39;1.40;99.90
71142;DHT22;58808;59.366;17.970;2023-02-28T05:25:06;1.40;99.90
71142;DHT22;58808;59.366;17.970;2023-02-28T05:27:32;1.40;99.90
71142;DHT22;58808;59.366;17.970;2023-02-28T05:29:58;1.40;99.90
71142;DHT22;58808;59.366;17.970;2023-02-28T05:32:24;1.40;99.90
71142;DHT22;58808;59.366;17.970;2023-02-28T05:34:50;1.40;99.90
71142;DHT22;58808;59.366;17.970;2023-02-28T05:37:16;1.40;99.90
71142;DHT22;58808;59.366;17.970;2023-02-28T05:39:42;1.30;99.90
71142;DHT22;58808;59.366;17.970;2023-02-28T05:42:08;1.30;99.90
71142;DHT22;58808;59.366;17.970;2023-02-28T05:44:35;1.30;99.90
71142;DHT22;58808;59.366;17.970;2023-02-28T05:47:01;1.30;99.90
71142;DHT22;58808;59.366;17.970;2023-02-28T05:49:26;1.30;99.90
71142;DHT22;58808;59.366;17.970;2023-02-28T05:51:52;1.30;99.90
71142;DHT22;58808;59.366;17.970;2023-02-28T05:54:18;1.30;99.90
71142;DHT22;58808;59.366;17.970;2023-02-28T05:56:44;1.30;99.90
71142;DHT22;58808;59.366;17.970;2023-02-28T05:59:11;1.30;99.90
71142;DHT22;58808;59.366;17.970;2023-02-28T06:01:43;1.30;99.90
71142;DHT22;58808;59.366;17.970;2023-02-28T06:04:14;1.20;99.90
71142;DHT22;58808;59.366;17.970;2023-02-28T06:06:44;1.20;99.90
71142;DHT22;58808;59.366;17.970;2023-02-28T06:09:10;1.20;99.90
71142;DHT22;58808;59.366;17.970;2023-02-28T06:11:37;1.20;99.90
71142;DHT22;58808;59.366;17.970;2023-02-28T06:14:03;1.20;99.90
71142;DHT22;58808;59.366;17.970;2023-02-28T06:16:32;1.20;99.90
71142;DHT22;58808;59.366;17.970;2023-02-28T06:18:59;1.20;99.90
71142;DHT22;58808;59.366;17.970;2023-02-28T06:21:25;1.20;99.90
71142;DHT22;58808;59.366;17.970;2023-02-28T06:23:52;1.20;99.90
71142;DHT22;58808;59.366;17.970;2023-02-28T06:26:19;1.30;99.90
71142;DHT22;58808;59.366;17.970;2023-02-28T06:28:45;1.30;99.90
71142;DHT22;58808;59.366;17.970;2023-02-28T06:31:13;1.30;99.90
71142;DHT22;58808;59.366;17.970;2023-02-28T06:33:40;1.40;99.90
71142;DHT22;58808;59.366;17.970;2023-02-28T06:36:07;1.40;99.90
71142;DHT22;58808;59.366;17.970;2023-02-28T06:38:33;1.40;99.90
71142;DHT22;58808;59.366;17.970;2023-02-28T06:41:01;1.40;99.90
71142;DHT22;58808;59.366;17.970;2023-02-28T06:43:32;1.40;99.90
71142;DHT22;58808;59.366;17.970;2023-02-28T06:46:00;1.40;99.90
71142;DHT22;58808;59.366;17.970;2023-02-28T06:48:27;1.40;99.90
71142;DHT22;58808;59.366;17.970;2023-02-28T06:51:04;1.40;99.90
71142;DHT22;58808;59.366;17.970;2023-02-28T06:53:30;1.40;99.90
71142;DHT22;58808;59.366;17.970;2023-02-28T06:55:56;1.50;99.90
71142;DHT22;58808;59.366;17.970;2023-02-28T06:58:22;1.50;99.90
71142;DHT22;58808;59.366;17.970;2023-02-28T07:00:51;1.50;99.90
71142;DHT22;58808;59.366;17.970;2023-02-28T07:03:17;1.60;99.90
71142;DHT22;58808;59.366;17.970;2023-02-28T07:05:44;1.60;99.90
71142;DHT22;58808;59.366;17.970;2023-02-28T07:08:10;1.70;99.90
71142;DHT22;58808;59.366;17.970;2023-02-28T07:10:39;1.70;99.90
71142;DHT22;58808;59.366;17.970;2023-02-28T07:13:06;1.70;99.90
71142;DHT22;58808;59.366;17.970;2023-02-28T07:15:32;1.80;99.90
71142;DHT22;58808;59.366;17.970;2023-02-28T07:17:57;1.90;99.90
71142;DHT22;58808;59.366;17.970;2023-02-28T07:20:23;1.90;99.90
71142;DHT22;58808;59.366;17.970;2023-02-28T07:22:50;2.00;99.90
71142;DHT22;58808;59.366;17.970;2023-02-28T07:25:26;2.00;99.90
71142;DHT22;58808;59.366;17.970;2023-02-28T07:27:52;2.10;99.90
71142;DHT22;58808;59.366;17.970;2023-02-28T07:37:07;2.30;99.90
71142;DHT22;58808;59.366;17.970;2023-02-28T07:39:32;2.40;99.90
71142;DHT22;58808;59.366;17.970;2023-02-28T07:41:58;2.50;99.90
71142;DHT22;58808;59.366;17.970;2023-02-28T07:44:26;2.60;99.90
71142;DHT22;58808;59.366;17.970;2023-02-28T07:46:51;2.60;99.90
71142;DHT22;58808;59.366;17.970;2023-02-28T07:49:18;2.70;99.90
71142;DHT22;58808;59.366;17.970;2023-02-28T07:51:44;2.70;99.90
71142;DHT22;58808;59.366;17.970;2023-02-28T07:54:10;2.80;99.90
71142;DHT22;58808;59.366;17.970;2023-02-28T07:56:35;2.80;99.90
71142;DHT22;58808;59.366;17.970;2023-02-28T07:59:01;2.90;99.90
71142;DHT22;58808;59.366;17.970;2023-02-28T08:01:27;2.90;99.90
71142;DHT22;58808;59.366;17.970;2023-02-28T08:03:53;3.00;99.90
71142;DHT22;58808;59.366;17.970;2023-02-28T08:06:24;3.10;99.90
71142;DHT22;58808;59.366;17.970;2023-02-28T08:08:51;3.20;99.90
71142;DHT22;58808;59.366;17.970;2023-02-28T08:11:17;3.30;99.90
71142;DHT22;58808;59.366;17.970;2023-02-28T08:13:44;3.30;99.90
71142;DHT22;58808;59.366;17.970;2023-02-28T08:16:11;3.40;99.90
71142;DHT22;58808;59.366;17.970;2023-02-28T08:18:37;3.50;99.90
71142;DHT22;58808;59.366;17.970;2023-02-28T08:21:07;3.60;99.90
71142;DHT22;58808;59.366;17.970;2023-02-28T08:23:33;3.70;99.90
71142;DHT22;58808;59.366;17.970;2023-02-28T08:25:59;3.80;99.90
71142;DHT22;58808;59.366;17.970;2023-02-28T08:28:24;3.90;99.90
71142;DHT22;58808;59.366;17.970;2023-02-28T08:30:50;3.90;99.90
71142;DHT22;58808;59.366;17.970;2023-02-28T08:33:16;3.90;99.90
71142;DHT22;58808;59.366;17.970;2023-02-28T08:35:42;4.00;99.90
71142;DHT22;58808;59.366;17.970;2023-02-28T08:38:07;4.10;99.90
71142;DHT22;58808;59.366;17.970;2023-02-28T08:40:33;4.10;99.90
71142;DHT22;58808;59.366;17.970;2023-02-28T08:42:59;4.20;99.90
71142;DHT22;58808;59.366;17.970;2023-02-28T08:45:25;4.20;99.90
71142;DHT22;58808;59.366;17.970;2023-02-28T08:47:51;4.20;99.90
71142;DHT22;58808;59.366;17.970;2023-02-28T08:50:18;4.20;99.90
71142;DHT22;58808;59.366;17.970;2023-02-28T08:52:44;4.30;99.90
71142;DHT22;58808;59.366;17.970;2023-02-28T08:55:10;4.30;99.90
71142;DHT22;58808;59.366;17.970;2023-02-28T08:57:35;4.30;99.90
71142;DHT22;58808;59.366;17.970;2023-02-28T09:00:03;4.30;99.90
71142;DHT22;58808;59.366;17.970;2023-02-28T09:02:30;4.30;99.90
71142;DHT22;58808;59.366;17.970;2023-02-28T09:04:57;4.30;99.90
71142;DHT22;58808;59.366;17.970;2023-02-28T09:07:24;4.50;99.90
71142;DHT22;58808;59.366;17.970;2023-02-28T09:09:50;4.60;99.90
71142;DHT22;58808;59.366;17.970;2023-02-28T09:12:24;4.70;99.90
71142;DHT22;58808;59.366;17.970;2023-02-28T09:14:51;4.80;99.90
71142;DHT22;58808;59.366;17.970;2023-02-28T09:17:18;4.90;99.90
71142;DHT22;58808;59.366;17.970;2023-02-28T09:19:44;5.00;99.90
71142;DHT22;58808;59.366;17.970;2023-02-28T09:22:11;5.10;99.90
71142;DHT22;58808;59.366;17.970;2023-02-28T09:24:37;5.10;99.90
71142;DHT22;58808;59.366;17.970;2023-02-28T09:27:04;5.10;99.90
71142;DHT22;58808;59.366;17.970;2023-02-28T09:29:30;5.10;99.90
71142;DHT22;58808;59.366;17.970;2023-02-28T09:31:56;5.10;99.90
71142;DHT22;58808;59.366;17.970;2023-02-28T09:34:24;5.10;99.90
71142;DHT22;58808;59.366;17.970;2023-02-28T09:36:50;5.20;99.90
71142;DHT22;58808;59.366;17.970;2023-02-28T09:39:21;5.30;99.90
71142;DHT22;58808;59.366;17.970;2023-02-28T09:41:51;5.30;99.90
71142;DHT22;58808;59.366;17.970;2023-02-28T09:44:38;5.40;99.90
71142;DHT22;58808;59.366;17.970;2023-02-28T09:49:42;5.60;98.50
71142;DHT22;58808;59.366;17.970;2023-02-28T09:52:12;5.60;97.70
71142;DHT22;58808;59.366;17.970;2023-02-28T09:54:39;5.70;97.00
71142;DHT22;58808;59.366;17.970;2023-02-28T09:57:38;5.70;97.30
71142;DHT22;58808;59.366;17.970;2023-02-28T10:03:08;5.80;96.10
71142;DHT22;58808;59.366;17.970;2023-02-28T10:11:07;6.00;96.40
71142;DHT22;58808;59.366;17.970;2023-02-28T10:19:26;6.20;94.60
71142;DHT22;58808;59.366;17.970;2023-02-28T10:21:47;6.20;94.40
71142;DHT22;58808;59.366;17.970;2023-02-28T10:24:32;6.20;94.00
71142;DHT22;58808;59.366;17.970;2023-02-28T10:27:05;6.30;93.40
71142;DHT22;58808;59.366;17.970;2023-02-28T10:29:32;6.40;93.00
71142;DHT22;58808;59.366;17.970;2023-02-28T10:32:01;6.40;93.10
71142;DHT22;58808;59.366;17.970;2023-02-28T10:34:28;6.50;91.80
71142;DHT22;58808;59.366;17.970;2023-02-28T10:36:54;6.50;91.50
71142;DHT22;58808;59.366;17.970;2023-02-28T10:39:53;6.50;92.10
71142;DHT22;58808;59.366;17.970;2023-02-28T10:44:45;6.50;92.00
71142;DHT22;58808;59.366;17.970;2023-02-28T10:47:17;6.50;91.60
71142;DHT22;58808;59.366;17.970;2023-02-28T10:49:49;6.50;91.50
71142;DHT22;58808;59.366;17.970;2023-02-28T10:52:36;6.50;91.00
71142;DHT22;58808;59.366;17.970;2023-02-28T10:55:35;6.50;90.80
71142;DHT22;58808;59.366;17.970;2023-02-28T10:58:01;6.60;91.60
71142;DHT22;58808;59.366;17.970;2023-02-28T11:00:33;6.70;90.70
71142;DHT22;58808;59.366;17.970;2023-02-28T11:03:00;6.80;90.40
71142;DHT22;58808;59.366;17.970;2023-02-28T11:05:31;6.80;89.20
71142;DHT22;58808;59.366;17.970;2023-02-28T11:08:17;6.90;88.70
71142;DHT22;58808;59.366;17.970;2023-02-28T11:10:57;7.00;88.10
71142;DHT22;58808;59.366;17.970;2023-02-28T11:13:32;7.00;88.40
71142;DHT22;58808;59.366;17.970;2023-02-28T11:16:02;7.10;88.40
71142;DHT22;58808;59.366;17.970;2023-02-28T11:18:43;7.10;87.80
71142;DHT22;58808;59.366;17.970;2023-02-28T11:21:27;7.20;87.20
71142;DHT22;58808;59.366;17.970;2023-02-28T11:24:24;7.30;86.90
71142;DHT22;58808;59.366;17.970;2023-02-28T11:26:51;7.40;85.20
71142;DHT22;58808;59.366;17.970;2023-02-28T11:29:33;7.50;83.70
71142;DHT22;58808;59.366;17.970;2023-02-28T11:32:18;7.50;82.80
71142;DHT22;58808;59.366;17.970;2023-02-28T11:34:46;7.60;85.10
71142;DHT22;58808;59.366;17.970;2023-02-28T11:37:18;7.80;82.50
71142;DHT22;58808;59.366;17.970;2023-02-28T11:39:45;7.90;81.00
71142;DHT22;58808;59.366;17.970;2023-02-28T11:48:16;8.10;79.20
71142;DHT22;58808;59.366;17.970;2023-02-28T11:51:06;8.20;79.60
71142;DHT22;58808;59.366;17.970;2023-02-28T11:56:46;8.10;78.40
71142;DHT22;58808;59.366;17.970;2023-02-28T12:02:25;8.10;77.90
71142;DHT22;58808;59.366;17.970;2023-02-28T12:07:54;8.00;77.50
71142;DHT22;58808;59.366;17.970;2023-02-28T12:10:30;8.00;78.50
71142;DHT22;58808;59.366;17.970;2023-02-28T12:13:09;8.00;78.50
71142;DHT22;58808;59.366;17.970;2023-02-28T12:18:27;8.20;77.80
71142;DHT22;58808;59.366;17.970;2023-02-28T12:26:58;8.70;74.80
71142;DHT22;58808;59.366;17.970;2023-02-28T12:29:32;8.80;74.20
71142;DHT22;58808;59.366;17.970;2023-02-28T12:32:05;8.90;73.70
71142;DHT22;58808;59.366;17.970;2023-02-28T12:34:36;9.00;73.20
71142;DHT22;58808;59.366;17.970;2023-02-28T12:37:10;9.10;72.70
71142;DHT22;58808;59.366;17.970;2023-02-28T12:39:45;9.10;72.50
71142;DHT22;58808;59.366;17.970;2023-02-28T12:42:32;9.10;71.20
71142;DHT22;58808;59.366;17.970;2023-02-28T12:45:05;9.10;72.30
71142;DHT22;58808;59.366;17.970;2023-02-28T12:47:34;9.20;72.20
71142;DHT22;58808;59.366;17.970;2023-02-28T12:50:08;9.30;71.50
71142;DHT22;58808;59.366;17.970;2023-02-28T12:56:15;9.40;71.20
71142;DHT22;58808;59.366;17.970;2023-02-28T12:59:07;9.40;70.70
71142;DHT22;58808;59.366;17.970;2023-02-28T13:10:12;9.10;71.70
71142;DHT22;58808;59.366;17.970;2023-02-28T13:12:48;9.10;71.40
71142;DHT22;58808;59.366;17.970;2023-02-28T13:15:24;9.10;71.40
71142;DHT22;58808;59.366;17.970;2023-02-28T13:17:53;9.20;70.80
71142;DHT22;58808;59.366;17.970;2023-02-28T13:20:32;9.20;70.10
71142;DHT22;58808;59.366;17.970;2023-02-28T13:22:58;9.30;70.10
71142;DHT22;58808;59.366;17.970;2023-02-28T13:28:13;9.20;69.00
71142;DHT22;58808;59.366;17.970;2023-02-28T13:33:35;9.10;70.60
71142;DHT22;58808;59.366;17.970;2023-02-28T13:38:41;9.10;70.90
71142;DHT22;58808;59.366;17.970;2023-02-28T13:46:30;9.10;69.80
71142;DHT22;58808;59.366;17.970;2023-02-28T13:48:56;9.10;70.90
71142;DHT22;58808;59.366;17.970;2023-02-28T13:51:40;9.00;70.70
71142;DHT22;58808;59.366;17.970;2023-02-28T14:05:42;9.00;70.50
71142;DHT22;58808;59.366;17.970;2023-02-28T14:08:20;9.00;70.70
71142;DHT22;58808;59.366;17.970;2023-02-28T14:11:04;8.90;70.90
71142;DHT22;58808;59.366;17.970;2023-02-28T14:13:45;8.90;70.40
71142;DHT22;58808;59.366;17.970;2023-02-28T14:16:19;8.80;70.90
71142;DHT22;58808;59.366;17.970;2023-02-28T14:18:54;8.70;70.70
71142;DHT22;58808;59.366;17.970;2023-02-28T14:21:26;8.70;71.40
71142;DHT22;58808;59.366;17.970;2023-02-28T14:31:36;8.50;72.40
71142;DHT22;58808;59.366;17.970;2023-02-28T14:37:00;8.40;72.80
71142;DHT22;58808;59.366;17.970;2023-02-28T14:39:27;8.30;73.80
71142;DHT22;58808;59.366;17.970;2023-02-28T14:41:56;8.30;73.80
71142;DHT22;58808;59.366;17.970;2023-02-28T14:44:27;8.30;74.60
71142;DHT22;58808;59.366;17.970;2023-02-28T14:47:01;8.30;74.60
71142;DHT22;58808;59.366;17.970;2023-02-28T14:49:35;8.30;75.00
71142;DHT22;58808;59.366;17.970;2023-02-28T14:52:21;8.30;73.90
71142;DHT22;58808;59.366;17.970;2023-02-28T14:54:59;8.20;73.60
71142;DHT22;58808;59.366;17.970;2023-02-28T14:57:29;8.20;73.70
71142;DHT22;58808;59.366;17.970;2023-02-28T15:02:26;8.10;73.90
71142;DHT22;58808;59.366;17.970;2023-02-28T15:05:23;8.10;74.10
71142;DHT22;58808;59.366;17.970;2023-02-28T15:08:05;8.00;74.50
71142;DHT22;58808;59.366;17.970;2023-02-28T15:10:31;8.00;75.00
71142;DHT22;58808;59.366;17.970;2023-02-28T15:13:00;7.90;75.20
71142;DHT22;58808;59.366;17.970;2023-02-28T15:15:52;7.90;75.00
71142;DHT22;58808;59.366;17.970;2023-02-28T15:18:25;8.00;75.20
71142;DHT22;58808;59.366;17.970;2023-02-28T15:20:54;8.00;75.40
71142;DHT22;58808;59.366;17.970;2023-02-28T15:23:21;7.90;75.70
71142;DHT22;58808;59.366;17.970;2023-02-28T15:25:48;7.90;76.00
71142;DHT22;58808;59.366;17.970;2023-02-28T15:28:18;7.80;75.90
71142;DHT22;58808;59.366;17.970;2023-02-28T15:31:03;7.80;76.30
71142;DHT22;58808;59.366;17.970;2023-02-28T15:33:32;7.80;76.40
71142;DHT22;58808;59.366;17.970;2023-02-28T15:36:13;7.80;76.70
71142;DHT22;58808;59.366;17.970;2023-02-28T15:38:40;7.70;76.80
71142;DHT22;58808;59.366;17.970;2023-02-28T15:41:27;7.70;76.90
71142;DHT22;58808;59.366;17.970;2023-02-28T15:44:28;7.70;77.20
71142;DHT22;58808;59.366;17.970;2023-02-28T15:49:39;7.60;77.50
71142;DHT22;58808;59.366;17.970;2023-02-28T15:52:05;7.60;77.90
71142;DHT22;58808;59.366;17.970;2023-02-28T15:54:35;7.50;78.20
71142;DHT22;58808;59.366;17.970;2023-02-28T15:57:05;7.50;78.20
71142;DHT22;58808;59.366;17.970;2023-02-28T15:59:36;7.50;78.60
71142;DHT22;58808;59.366;17.970;2023-02-28T16:04:28;7.40;78.90
71142;DHT22;58808;59.366;17.970;2023-02-28T16:07:01;7.40;79.00
71142;DHT22;58808;59.366;17.970;2023-02-28T16:09:27;7.20;79.40
71142;DHT22;58808;59.366;17.970;2023-02-28T16:11:56;7.20;80.00
71142;DHT22;58808;59.366;17.970;2023-02-28T16:14:26;7.10;80.20
71142;DHT22;58808;59.366;17.970;2023-02-28T16:17:20;7.10;80.90
71142;DHT22;58808;59.366;17.970;2023-02-28T16:19:43;7.00;81.00
71142;DHT22;58808;59.366;17.970;2023-02-28T16:22:09;7.00;81.40
71142;DHT22;58808;59.366;17.970;2023-02-28T16:24:35;7.10;81.70
71142;DHT22;58808;59.366;17.970;2023-02-28T16:27:02;7.00;81.90
71142;DHT22;58808;59.366;17.970;2023-02-28T16:29:33;7.00;81.90
71142;DHT22;58808;59.366;17.970;2023-02-28T16:32:00;7.00;81.90
71142;DHT22;58808;59.366;17.970;2023-02-28T16:34:28;7.00;82.20
71142;DHT22;58808;59.366;17.970;2023-02-28T16:36:53;7.00;82.30
71142;DHT22;58808;59.366;17.970;2023-02-28T16:39:19;7.00;82.30
71142;DHT22;58808;59.366;17.970;2023-02-28T16:41:51;7.00;82.60
71142;DHT22;58808;59.366;17.970;2023-02-28T16:46:51;6.90;83.10
71142;DHT22;58808;59.366;17.970;2023-02-28T16:49:17;6.90;83.40
71142;DHT22;58808;59.366;17.970;2023-02-28T16:51:43;6.90;84.60
71142;DHT22;58808;59.366;17.970;2023-02-28T16:54:08;6.80;84.10
71142;DHT22;58808;59.366;17.970;2023-02-28T16:56:34;6.80;84.20
71142;DHT22;58808;59.366;17.970;2023-02-28T16:59:01;6.80;84.40
71142;DHT22;58808;59.366;17.970;2023-02-28T17:01:27;6.80;84.70
71142;DHT22;58808;59.366;17.970;2023-02-28T17:03:54;6.80;85.00
71142;DHT22;58808;59.366;17.970;2023-02-28T17:06:26;6.70;85.10
71142;DHT22;58808;59.366;17.970;2023-02-28T17:08:54;6.70;85.50
71142;DHT22;58808;59.366;17.970;2023-02-28T17:11:20;6.70;85.60
71142;DHT22;58808;59.366;17.970;2023-02-28T17:13:46;6.70;85.80
71142;DHT22;58808;59.366;17.970;2023-02-28T17:16:33;6.70;86.00
71142;DHT22;58808;59.366;17.970;2023-02-28T17:19:03;6.70;86.30
71142;DHT22;58808;59.366;17.970;2023-02-28T17:21:30;6.60;85.90
71142;DHT22;58808;59.366;17.970;2023-02-28T17:23:56;6.70;86.30
71142;DHT22;58808;59.366;17.970;2023-02-28T17:26:24;6.60;86.60
71142;DHT22;58808;59.366;17.970;2023-02-28T17:28:57;6.60;86.60
71142;DHT22;58808;59.366;17.970;2023-02-28T17:31:24;6.60;86.80
71142;DHT22;58808;59.366;17.970;2023-02-28T17:33:50;6.50;87.20
71142;DHT22;58808;59.366;17.970;2023-02-28T17:36:22;6.50;87.50
71142;DHT22;58808;59.366;17.970;2023-02-28T17:38:48;6.50;87.30
71142;DHT22;58808;59.366;17.970;2023-02-28T17:41:14;6.50;87.30
71142;DHT22;58808;59.366;17.970;2023-02-28T17:43:40;6.50;87.20
71142;DHT22;58808;59.366;17.970;2023-02-28T17:46:16;6.50;87.30
71142;DHT22;58808;59.366;17.970;2023-02-28T17:48:43;6.50;87.40
71142;DHT22;58808;59.366;17.970;2023-02-28T17:51:12;6.50;87.50
71142;DHT22;58808;59.366;17.970;2023-02-28T17:53:38;6.50;87.70
71142;DHT22;58808;59.366;17.970;2023-02-28T17:56:05;6.40;87.90
71142;DHT22;58808;59.366;17.970;2023-02-28T17:58:31;6.40;88.00
71142;DHT22;58808;59.366;17.970;2023-02-28T18:00:56;6.40;88.10
71142;DHT22;58808;59.366;17.970;2023-02-28T18:03:22;6.40;87.90
71142;DHT22;58808;59.366;17.970;2023-02-28T18:05:50;6.40;88.10
71142;DHT22;58808;59.366;17.970;2023-02-28T18:08:16;6.30;88.30
71142;DHT22;58808;59.366;17.970;2023-02-28T18:10:42;6.30;88.60
71142;DHT22;58808;59.366;17.970;2023-02-28T18:13:08;6.30;88.70
71142;DHT22;58808;59.366;17.970;2023-02-28T18:15:33;6.30;89.00